createdAt,value
2018-09-08T00:01:09.195Z,3.50
2018-09-08T00:03:37.650Z,4.60
2018-09-08T00:06:06.150Z,3.87
2018-09-08T00:08:35.654Z,3.43
2018-09-08T00:11:04.191Z,2.93
2018-09-08T00:13:32.617Z,3.57
2018-09-08T00:16:06.478Z,7.77
2018-09-08T00:18:40.164Z,3.53
2018-09-08T00:21:13.974Z,2.90
2018-09-08T00:23:47.687Z,3.30
2018-09-08T00:26:21.374Z,4.77
2018-09-08T00:29:56.091Z,3.67
2018-09-08T00:32:24.430Z,3.27
2018-09-08T00:34:52.767Z,4.03
2018-09-08T00:37:22.183Z,6.20
2018-09-08T00:39:51.676Z,4.53
2018-09-08T00:42:20.381Z,4.40
2018-09-08T00:44:48.756Z,6.77
2018-09-08T00:47:17.123Z,2.80
2018-09-08T00:49:45.440Z,4.33
2018-09-08T00:52:13.766Z,7.93
2018-09-08T00:54:42.100Z,3.00
2018-09-08T00:57:10.474Z,3.43
2018-09-08T00:59:38.824Z,2.60
2018-09-08T01:02:07.265Z,6.20
2018-09-08T01:04:37.404Z,3.23
2018-09-08T01:07:09.934Z,4.57
2018-09-08T01:09:38.513Z,3.67
2018-09-08T01:12:06.898Z,2.87
2018-09-08T01:14:35.230Z,4.00
2018-09-08T01:17:03.560Z,2.67
2018-09-08T01:19:31.887Z,3.20
2018-09-08T01:22:00.234Z,3.33
2018-09-08T01:24:31.248Z,3.27
2018-09-08T01:26:59.625Z,5.77
2018-09-08T01:29:27.977Z,3.73
2018-09-08T01:31:56.308Z,7.50
2018-09-08T01:34:24.628Z,2.90
2018-09-08T01:36:53.202Z,2.83
2018-09-08T01:39:21.781Z,3.73
2018-09-08T01:41:50.136Z,4.03
2018-09-08T01:44:18.484Z,3.77
2018-09-08T01:46:47.019Z,2.33
2018-09-08T01:49:15.358Z,3.20
2018-09-08T01:51:43.863Z,3.17
2018-09-08T01:54:12.381Z,3.40
2018-09-08T01:56:40.945Z,4.20
2018-09-08T01:59:09.556Z,2.97
2018-09-08T02:01:37.928Z,2.80
2018-09-08T02:04:06.263Z,5.03
2018-09-08T02:06:34.584Z,3.37
2018-09-08T02:09:03.167Z,2.40
2018-09-08T02:11:31.552Z,2.70
2018-09-08T02:13:59.915Z,2.07
2018-09-08T02:16:28.294Z,1.97
2018-09-08T02:18:56.664Z,2.03
2018-09-08T02:21:25.024Z,4.60
2018-09-08T02:23:53.339Z,5.67
2018-09-08T02:26:21.685Z,2.83
2018-09-08T02:28:50.159Z,2.33
2018-09-08T02:31:18.505Z,2.87
2018-09-08T02:33:46.859Z,2.97
2018-09-08T02:36:15.208Z,2.73
2018-09-08T02:38:43.588Z,2.67
2018-09-08T02:41:11.952Z,3.40
2018-09-08T02:43:40.306Z,8.43
2018-09-08T02:46:08.684Z,3.00
2018-09-08T02:48:37.044Z,2.70
2018-09-08T02:51:04.315Z,5.03
2018-09-08T02:53:31.583Z,2.43
2018-09-08T02:55:58.845Z,3.73
2018-09-08T02:58:26.100Z,3.37
2018-09-08T03:00:53.379Z,4.57
2018-09-08T03:03:20.650Z,5.10
2018-09-08T03:05:47.901Z,3.10
2018-09-08T03:08:15.151Z,2.70
2018-09-08T03:10:42.406Z,3.40
2018-09-08T03:13:09.659Z,3.30
2018-09-08T03:15:36.913Z,3.30
2018-09-08T03:18:04.165Z,3.23
2018-09-08T03:20:31.448Z,3.53
2018-09-08T03:22:58.701Z,4.17
2018-09-08T03:25:25.958Z,1.87
2018-09-08T03:27:53.234Z,2.80
2018-09-08T03:30:20.504Z,3.23
2018-09-08T03:32:47.753Z,3.07
2018-09-08T03:35:15.005Z,4.17
2018-09-08T03:37:42.261Z,3.47
2018-09-08T03:40:09.498Z,4.87
2018-09-08T03:42:36.764Z,3.13
2018-09-08T03:45:04.008Z,3.43
2018-09-08T03:47:31.255Z,4.03
2018-09-08T03:49:58.508Z,4.30
2018-09-08T03:52:25.896Z,3.60
2018-09-08T03:54:53.148Z,2.50
2018-09-08T03:57:20.400Z,6.80
2018-09-08T03:59:47.661Z,4.70
2018-09-08T04:02:14.904Z,5.40
2018-09-08T04:04:43.360Z,4.37
2018-09-08T04:07:11.690Z,2.63
2018-09-08T04:09:40.480Z,3.17
2018-09-08T04:12:08.840Z,2.73
2018-09-08T04:14:37.238Z,3.83
2018-09-08T04:17:05.604Z,3.93
2018-09-08T04:19:34.392Z,4.17
2018-09-08T04:22:02.768Z,3.27
2018-09-08T04:24:31.179Z,5.47
2018-09-08T04:26:59.517Z,5.53
2018-09-08T04:29:27.927Z,3.73
2018-09-08T04:31:56.250Z,4.20
2018-09-08T04:34:24.628Z,3.53
2018-09-08T04:36:53.414Z,4.10
2018-09-08T04:39:21.763Z,6.20
2018-09-08T04:41:50.108Z,5.23
2018-09-08T04:44:18.460Z,4.23
2018-09-08T04:46:47.069Z,3.70
2018-09-08T04:49:15.415Z,3.67
2018-09-08T04:51:43.815Z,4.93
2018-09-08T04:54:12.171Z,4.23
2018-09-08T04:56:40.503Z,5.47
2018-09-08T04:59:08.849Z,5.17
2018-09-08T05:01:37.204Z,4.80
2018-09-08T05:04:05.520Z,7.17
2018-09-08T05:06:33.864Z,5.10
2018-09-08T05:09:02.212Z,7.47
2018-09-08T05:11:30.570Z,5.23
2018-09-08T05:13:59.338Z,4.90
2018-09-08T05:16:27.685Z,4.07
2018-09-08T05:18:56.033Z,8.17
2018-09-08T05:21:24.381Z,4.57
2018-09-08T05:23:52.721Z,7.17
2018-09-08T05:26:21.052Z,4.57
2018-09-08T05:28:49.480Z,3.90
2018-09-08T05:31:17.806Z,3.80
2018-09-08T05:33:46.199Z,5.83
2018-09-08T05:36:14.599Z,5.13
2018-09-08T05:38:42.958Z,4.40
2018-09-08T05:41:11.356Z,6.40
2018-09-08T05:43:39.687Z,4.47
2018-09-08T05:46:08.046Z,6.73
2018-09-08T05:48:36.852Z,5.63
2018-09-08T05:51:05.254Z,4.40
2018-09-08T05:53:33.809Z,3.60
2018-09-08T05:56:02.124Z,5.20
2018-09-08T05:58:30.532Z,7.60
2018-09-08T06:00:59.484Z,4.33
2018-09-08T06:03:27.854Z,5.77
2018-09-08T06:05:56.222Z,3.80
2018-09-08T06:08:24.535Z,4.83
2018-09-08T06:10:52.880Z,4.50
2018-09-08T06:13:21.206Z,6.03
2018-09-08T06:15:49.534Z,3.27
2018-09-08T06:18:18.379Z,7.57
2018-09-08T06:20:46.708Z,5.23
2018-09-08T06:23:15.048Z,4.27
2018-09-08T06:25:43.413Z,6.03
2018-09-08T06:28:11.774Z,4.17
2018-09-08T06:30:40.115Z,4.97
2018-09-08T06:33:08.487Z,4.20
2018-09-08T06:35:36.839Z,8.40
2018-09-08T06:38:05.213Z,5.23
2018-09-08T06:40:33.758Z,3.93
2018-09-08T06:43:02.114Z,7.03
2018-09-08T06:45:30.501Z,4.50
2018-09-08T06:47:59.329Z,4.90
2018-09-08T06:50:27.711Z,3.37
2018-09-08T06:52:56.209Z,7.23
2018-09-08T06:55:24.562Z,6.57
2018-09-08T06:57:52.953Z,3.17
2018-09-08T07:00:21.297Z,7.73
2018-09-08T07:02:49.628Z,4.90
2018-09-08T07:05:17.976Z,4.33
2018-09-08T07:07:46.324Z,7.83
2018-09-08T07:10:14.701Z,7.40
2018-09-08T07:12:43.081Z,4.23
2018-09-08T07:15:11.795Z,3.43
2018-09-08T07:17:40.157Z,6.33
2018-09-08T07:20:08.724Z,4.23
2018-09-08T07:22:37.142Z,3.07
2018-09-08T07:25:06.582Z,3.90
2018-09-08T07:27:34.921Z,5.60
2018-09-08T07:30:03.262Z,6.27
2018-09-08T07:32:31.616Z,2.97
2018-09-08T07:34:59.961Z,4.47
2018-09-08T07:37:28.379Z,3.63
2018-09-08T07:39:56.679Z,4.57
2018-09-08T07:42:25.020Z,3.83
2018-09-08T07:44:53.422Z,3.90
2018-09-08T07:47:21.804Z,2.03
2018-09-08T07:49:50.168Z,5.17
2018-09-08T07:52:18.647Z,3.40
2018-09-08T07:54:47.012Z,5.17
2018-09-08T07:57:15.367Z,4.70
2018-09-08T07:59:43.745Z,2.40
2018-09-08T08:02:12.127Z,3.10
2018-09-08T08:04:40.476Z,5.87
2018-09-08T08:07:14.201Z,4.17
2018-09-08T08:09:43.668Z,4.03
2018-09-08T08:12:12.264Z,3.23
2018-09-08T08:14:40.848Z,4.15
2018-09-08T08:17:09.361Z,2.35
2018-09-08T08:19:38.120Z,4.03
2018-09-08T08:22:06.503Z,5.00
2018-09-08T08:24:34.853Z,3.05
2018-09-08T08:27:03.182Z,3.27
2018-09-08T08:29:31.536Z,4.60
2018-09-08T08:31:59.882Z,4.50
2018-09-08T08:34:28.253Z,3.25
2018-09-08T08:36:56.667Z,3.47
2018-09-08T08:39:25.128Z,4.08
2018-09-08T08:41:53.484Z,3.80
2018-09-08T08:44:26.755Z,3.85
2018-09-08T08:46:55.100Z,3.52
2018-09-08T08:49:23.448Z,4.00
2018-09-08T08:52:03.125Z,5.55
2018-09-08T08:54:35.287Z,3.20
2018-09-08T08:57:03.849Z,4.75
2018-09-08T08:59:33.044Z,6.37
2018-09-08T09:02:01.476Z,3.15
2018-09-08T09:04:30.375Z,5.75
2018-09-08T09:13:58.905Z,5.22
2018-09-08T09:16:27.324Z,4.10
2018-09-08T09:19:07.163Z,4.25
2018-09-08T09:21:46.883Z,3.45
2018-09-08T09:24:26.969Z,4.72
2018-09-08T09:26:54.872Z,3.45
2018-09-08T09:29:23.259Z,3.92
2018-09-08T09:31:51.616Z,2.87
2018-09-08T09:34:20.005Z,4.97
2018-09-08T09:36:48.458Z,3.37
2018-09-08T09:39:16.911Z,2.95
2018-09-08T09:41:45.246Z,22.55
2018-09-08T09:44:15.131Z,5.85
2018-09-08T09:46:43.596Z,3.60
2018-09-08T09:49:11.949Z,4.85
2018-09-08T09:51:40.371Z,2.27
2018-09-08T09:54:08.755Z,2.40
2018-09-08T09:56:37.193Z,3.72
2018-09-08T09:59:05.597Z,5.62
2018-09-08T10:01:39.278Z,6.47
2018-09-08T10:04:07.685Z,5.25
2018-09-08T10:06:36.157Z,5.12
2018-09-08T10:09:05.578Z,4.42
2018-09-08T10:11:33.954Z,5.83
2018-09-08T10:14:02.336Z,3.90
2018-09-08T10:16:30.718Z,5.22
2018-09-08T10:18:59.150Z,7.47
2018-09-08T10:21:27.476Z,4.95
2018-09-08T10:24:05.153Z,4.65
2018-09-08T10:26:24.270Z,6.00
2018-09-08T10:28:52.739Z,5.10
2018-09-08T10:31:21.119Z,5.08
2018-09-08T10:33:49.500Z,5.30
2018-09-08T10:36:17.899Z,7.22
2018-09-08T10:38:46.231Z,5.83
2018-09-08T10:41:14.584Z,3.87
2018-09-08T10:43:42.918Z,3.60
2018-09-08T10:46:11.340Z,2.62
2018-09-08T10:48:39.705Z,3.12
2018-09-08T10:51:50.553Z,5.35
2018-09-08T10:54:18.986Z,9.40
2018-09-08T10:56:47.383Z,5.20
2018-09-08T10:59:15.713Z,6.72
2018-09-08T11:01:44.247Z,5.75
2018-09-08T11:04:12.495Z,9.43
2018-09-08T11:06:40.840Z,5.45
2018-09-08T11:09:09.234Z,4.87
2018-09-08T11:11:37.582Z,3.13
2018-09-08T11:14:05.935Z,2.70
2018-09-08T11:16:34.314Z,3.50
2018-09-08T11:19:02.664Z,4.97
2018-09-08T11:21:31.513Z,3.60
2018-09-08T11:23:59.851Z,4.40
2018-09-08T11:26:28.279Z,5.40
2018-09-08T11:28:56.679Z,4.57
2018-09-08T11:31:25.025Z,2.30
2018-09-08T11:33:53.382Z,4.13
2018-09-08T11:36:21.760Z,2.57
2018-09-08T11:38:50.125Z,3.07
2018-09-08T11:41:18.471Z,3.17
2018-09-08T11:43:46.847Z,2.97
2018-09-08T11:46:15.211Z,3.27
2018-09-08T11:48:43.602Z,1.33
2018-09-08T11:51:12.093Z,2.83
2018-09-08T11:53:40.744Z,3.97
2018-09-08T11:56:09.078Z,3.87
2018-09-08T11:58:37.460Z,2.40
2018-09-08T12:01:05.928Z,4.73
2018-09-08T12:03:34.295Z,4.90
2018-09-08T12:06:02.652Z,4.77
2018-09-08T12:08:31.046Z,4.27
2018-09-08T12:10:59.400Z,3.80
2018-09-08T12:13:27.929Z,1.97
2018-09-08T12:15:56.304Z,1.70
2018-09-08T12:18:24.844Z,2.43
2018-09-08T12:20:53.424Z,3.40
2018-09-08T12:23:21.822Z,1.30
2018-09-08T12:25:50.167Z,3.60
2018-09-08T12:28:18.541Z,5.30
2018-09-08T12:30:46.998Z,3.57
2018-09-08T12:33:15.319Z,2.70
2018-09-08T12:35:43.680Z,3.33
2018-09-08T12:38:12.008Z,2.80
2018-09-08T12:40:40.445Z,4.53
2018-09-08T12:43:08.890Z,2.00
2018-09-08T12:45:37.248Z,2.70
2018-09-08T12:48:05.697Z,2.10
2018-09-08T12:50:34.060Z,2.77
2018-09-08T12:53:02.421Z,1.67
2018-09-08T12:55:30.886Z,1.87
2018-09-08T12:57:59.232Z,2.47
2018-09-08T13:00:27.714Z,3.27
2018-09-08T13:02:56.080Z,3.10
2018-09-08T13:05:24.437Z,2.07
2018-09-08T13:07:52.796Z,3.43
2018-09-08T13:10:21.124Z,3.63
2018-09-08T13:12:49.450Z,5.30
2018-09-08T13:15:18.636Z,3.10
2018-09-08T13:17:46.992Z,3.37
2018-09-08T13:20:15.349Z,5.80
2018-09-08T13:22:43.996Z,2.00
2018-09-08T13:25:12.374Z,1.30
2018-09-08T13:27:40.709Z,1.73
2018-09-08T13:30:09.068Z,2.97
2018-09-08T13:32:37.451Z,3.10
2018-09-08T13:35:05.817Z,1.80
2018-09-08T13:37:34.146Z,2.83
2018-09-08T13:40:02.597Z,6.27
2018-09-08T13:42:30.868Z,3.40
2018-09-08T13:44:59.221Z,2.93
2018-09-08T13:47:27.630Z,3.13
2018-09-08T13:49:56.129Z,1.57
2018-09-08T13:52:24.476Z,2.00
2018-09-08T13:54:52.868Z,4.03
2018-09-08T13:57:21.262Z,3.33
2018-09-08T13:59:49.631Z,1.73
2018-09-08T14:02:18.214Z,3.00
2018-09-08T14:04:46.593Z,4.10
2018-09-08T14:07:14.960Z,1.67
2018-09-08T14:09:43.361Z,2.77
2018-09-08T14:12:11.712Z,1.73
2018-09-08T14:14:40.076Z,1.20
2018-09-08T14:17:08.474Z,2.10
2018-09-08T14:19:36.837Z,3.03
2018-09-08T14:22:05.214Z,3.03
2018-09-08T14:24:33.580Z,1.80
2018-09-08T14:27:01.983Z,2.83
2018-09-08T14:29:30.373Z,3.40
2018-09-08T14:31:58.740Z,2.27
2018-09-08T14:34:27.068Z,2.73
2018-09-08T14:36:55.415Z,4.33
2018-09-08T14:39:23.769Z,1.73
2018-09-08T14:41:52.090Z,2.23
2018-09-08T14:44:20.526Z,3.10
2018-09-08T14:46:48.889Z,3.33
2018-09-08T14:49:17.251Z,3.03
2018-09-08T14:51:45.601Z,3.20
2018-09-08T14:54:13.953Z,2.67
2018-09-08T14:56:42.390Z,2.50
2018-09-08T14:59:10.842Z,3.07
2018-09-08T15:01:39.268Z,3.93
2018-09-08T15:04:07.727Z,11.57
2018-09-08T15:06:36.120Z,6.73
2018-09-08T15:09:06.512Z,2.63
2018-09-08T15:11:35.080Z,6.63
2018-09-08T15:14:03.459Z,1.80
2018-09-08T15:16:32.042Z,2.43
2018-09-08T15:19:00.409Z,12.00
2018-09-08T15:21:28.777Z,5.07
2018-09-08T15:23:57.811Z,9.67
2018-09-08T15:26:26.362Z,6.17
2018-09-08T15:28:54.739Z,5.37
2018-09-08T15:31:23.220Z,1.77
2018-09-08T15:33:51.631Z,18.03
2018-09-08T15:36:19.975Z,11.43
2018-09-08T15:38:48.378Z,4.57
2018-09-08T15:41:16.770Z,16.80
2018-09-08T15:43:45.180Z,4.63
2018-09-08T15:46:13.531Z,2.37
2018-09-08T15:48:41.890Z,3.93
2018-09-08T15:51:10.287Z,3.20
2018-09-08T15:53:38.711Z,12.47
2018-09-08T15:56:07.192Z,11.07
2018-09-08T15:58:36.050Z,2.17
2018-09-08T16:01:04.554Z,2.63
2018-09-08T16:03:32.925Z,1.47
2018-09-08T16:06:01.315Z,3.17
2018-09-08T16:08:29.745Z,3.13
2018-09-08T16:10:58.214Z,2.70
2018-09-08T16:13:26.724Z,2.20
2018-09-08T16:15:55.062Z,4.73
2018-09-08T16:18:23.449Z,4.27
2018-09-08T16:20:51.792Z,1.57
2018-09-08T16:23:20.271Z,2.90
2018-09-08T16:25:48.668Z,5.50
2018-09-08T16:28:18.113Z,1.40
2018-09-08T16:30:46.711Z,4.23
2018-09-08T16:33:15.173Z,1.93
2018-09-08T16:35:43.541Z,4.13
2018-09-08T16:38:11.919Z,3.90
2018-09-08T16:40:40.329Z,2.13
2018-09-08T16:43:08.708Z,3.20
2018-09-08T16:45:37.313Z,2.33
2018-09-08T16:48:05.924Z,4.13
2018-09-08T16:50:34.340Z,3.17
2018-09-08T16:53:02.834Z,2.20
2018-09-08T16:55:31.284Z,4.00
2018-09-08T16:58:00.227Z,5.07
2018-09-08T17:00:28.709Z,5.27
2018-09-08T17:02:57.140Z,5.73
2018-09-08T17:05:25.516Z,3.10
2018-09-08T17:07:53.876Z,1.70
2018-09-08T17:10:22.243Z,5.07
2018-09-08T17:12:50.586Z,4.47
2018-09-08T17:15:18.932Z,2.87
2018-09-08T17:17:47.279Z,5.23
2018-09-08T17:20:15.656Z,5.40
2018-09-08T17:22:44.032Z,2.70
2018-09-08T17:25:12.422Z,3.40
2018-09-08T17:27:41.303Z,3.97
2018-09-08T17:30:09.720Z,3.00
2018-09-08T17:32:38.165Z,2.27
2018-09-08T17:35:06.715Z,5.07
2018-09-08T17:37:35.060Z,4.73
2018-09-08T17:40:03.372Z,3.90
2018-09-08T17:42:31.715Z,2.17
2018-09-08T17:45:00.098Z,3.57
2018-09-08T17:47:28.446Z,5.93
2018-09-08T17:49:56.788Z,4.87
2018-09-08T17:52:25.131Z,7.07
2018-09-08T17:54:53.474Z,4.30
2018-09-08T17:57:21.889Z,3.70
2018-09-08T17:59:50.230Z,4.00
2018-09-08T18:02:19.134Z,3.57
2018-09-08T18:04:47.488Z,3.23
2018-09-08T18:07:17.696Z,2.87
2018-09-08T18:09:46.364Z,3.50
2018-09-08T18:12:14.967Z,4.13
2018-09-08T18:14:43.453Z,6.30
2018-09-08T18:17:12.346Z,5.87
2018-09-08T18:19:40.749Z,4.37
2018-09-08T18:22:09.396Z,4.43
2018-09-08T18:24:37.800Z,3.20
2018-09-08T18:27:06.365Z,3.13
2018-09-08T18:29:34.694Z,8.30
2018-09-08T18:32:03.054Z,4.70
2018-09-08T18:34:32.079Z,6.40
2018-09-08T18:37:00.439Z,5.07
2018-09-08T18:39:28.795Z,4.40
2018-09-08T18:41:57.254Z,8.30
2018-09-08T18:44:25.598Z,4.33
2018-09-08T18:46:53.950Z,6.33
2018-09-08T18:49:22.323Z,5.27
2018-09-08T18:51:50.768Z,6.80
2018-09-08T18:54:19.126Z,4.23
2018-09-08T18:56:47.476Z,5.90
2018-09-08T18:59:15.816Z,4.63
2018-09-08T19:01:44.697Z,5.43
2018-09-08T19:04:13.146Z,5.70
2018-09-08T19:06:41.726Z,6.30
2018-09-08T19:09:10.212Z,5.00
2018-09-08T19:11:38.591Z,10.30
2018-09-08T19:14:11.095Z,6.87
2018-09-08T19:16:39.445Z,8.20
2018-09-08T19:19:07.807Z,9.47
2018-09-08T19:21:36.137Z,6.37
2018-09-08T19:24:09.864Z,7.63
2018-09-08T19:26:38.389Z,10.63
2018-09-08T19:29:11.956Z,5.97
2018-09-08T19:31:40.459Z,5.40
2018-09-08T19:34:08.850Z,7.37
2018-09-08T19:36:37.194Z,7.00
2018-09-08T19:39:08.046Z,6.27
2018-09-08T19:41:36.868Z,5.40
2018-09-08T19:44:05.247Z,5.77
2018-09-08T19:46:39.082Z,6.27
2018-09-08T19:49:07.522Z,8.10
2018-09-08T19:51:36.853Z,8.03
2018-09-08T19:54:05.209Z,11.53
2018-09-08T19:56:39.010Z,7.27
2018-09-08T19:59:07.349Z,8.30
2018-09-08T20:01:35.733Z,10.53
2018-09-08T20:04:04.116Z,11.80
2018-09-08T20:06:32.529Z,10.40
2018-09-08T20:09:00.871Z,14.20
2018-09-08T20:11:29.252Z,11.67
2018-09-08T20:13:57.630Z,12.90
2018-09-08T20:16:26.107Z,7.67
2018-09-08T20:18:54.455Z,9.17
2018-09-08T20:21:22.803Z,8.50
2018-09-08T20:23:51.182Z,17.73
2018-09-08T20:26:19.540Z,9.53
2018-09-08T20:28:48.001Z,10.17
2018-09-08T20:31:16.271Z,8.67
2018-09-08T20:33:44.640Z,8.63
2018-09-08T20:36:13.004Z,9.13
2018-09-08T20:38:41.410Z,13.90
2018-09-08T20:41:09.765Z,11.93
2018-09-08T20:43:38.186Z,10.97
2018-09-08T20:46:06.800Z,14.10
2018-09-08T20:48:35.245Z,11.70
2018-09-08T20:51:03.610Z,13.20
2018-09-08T20:53:32.005Z,10.00
2018-09-08T20:56:00.388Z,9.13
2018-09-08T20:58:28.721Z,9.83
2018-09-08T21:00:57.129Z,12.27
2018-09-08T21:03:25.477Z,8.63
2018-09-08T21:05:53.831Z,8.43
2018-09-08T21:08:22.210Z,8.73
2018-09-08T21:10:50.694Z,8.37
2018-09-08T21:13:19.036Z,9.80
2018-09-08T21:15:47.557Z,9.20
2018-09-08T21:18:16.343Z,14.67
2018-09-08T21:20:44.804Z,7.97
2018-09-08T21:23:13.305Z,11.60
2018-09-08T21:25:41.653Z,11.97
2018-09-08T21:28:10.064Z,8.93
2018-09-08T21:30:38.645Z,8.57
2018-09-08T21:33:07.151Z,11.57
2018-09-08T21:35:35.506Z,7.73
2018-09-08T21:38:03.883Z,12.80
2018-09-08T21:40:32.233Z,8.90
2018-09-08T21:43:00.579Z,6.70
2018-09-08T21:45:28.926Z,8.93
2018-09-08T21:47:57.249Z,9.67
2018-09-08T21:50:25.708Z,7.20
2018-09-08T21:52:54.051Z,13.20
2018-09-08T21:55:22.390Z,12.50
2018-09-08T21:57:50.760Z,14.10
2018-09-08T22:00:19.167Z,8.27
2018-09-08T22:02:47.500Z,9.63
2018-09-08T22:05:15.862Z,9.37
2018-09-08T22:07:44.255Z,8.00
2018-09-08T22:10:12.630Z,11.63
2018-09-08T22:12:40.965Z,16.73
2018-09-08T22:15:09.378Z,15.50
2018-09-08T22:17:37.719Z,11.37
2018-09-08T22:20:06.124Z,11.30
2018-09-08T22:22:34.546Z,12.70
2018-09-08T22:25:03.012Z,11.80
2018-09-08T22:27:31.364Z,11.47
2018-09-08T22:29:59.852Z,14.37
2018-09-08T22:32:28.204Z,18.03
2018-09-08T22:34:56.609Z,14.13
2018-09-08T22:37:24.956Z,12.57
2018-09-08T22:39:53.290Z,9.00
2018-09-08T22:42:21.620Z,15.73
2018-09-08T22:44:49.918Z,16.37
2018-09-08T22:47:18.239Z,9.67
2018-09-08T22:49:46.669Z,9.23
2018-09-08T22:52:15.001Z,10.90
2018-09-08T22:54:43.323Z,9.63
2018-09-08T22:57:11.649Z,9.67
2018-09-08T22:59:40.006Z,12.77
2018-09-08T23:02:08.404Z,10.63
2018-09-08T23:04:36.761Z,9.17
2018-09-08T23:07:05.164Z,9.10
2018-09-08T23:09:33.510Z,11.63
2018-09-08T23:12:01.842Z,8.83
2018-09-08T23:14:30.168Z,9.93
2018-09-08T23:16:58.547Z,8.97
2018-09-08T23:19:26.893Z,6.87
2018-09-08T23:21:55.248Z,10.93
2018-09-08T23:24:23.652Z,10.33
2018-09-08T23:26:51.962Z,9.00
2018-09-08T23:29:20.392Z,8.33
2018-09-08T23:31:48.736Z,11.53
2018-09-08T23:34:17.229Z,10.70
2018-09-08T23:36:45.620Z,9.67
2018-09-08T23:39:14.065Z,7.23
2018-09-08T23:41:42.490Z,8.93
2018-09-08T23:44:10.845Z,7.67
2018-09-08T23:46:39.150Z,6.17
2018-09-08T23:49:07.520Z,7.87
2018-09-08T23:51:35.879Z,9.10
2018-09-08T23:54:04.222Z,12.97
2018-09-08T23:56:32.613Z,6.93
2018-09-08T23:59:02.065Z,6.40
